Time,TemperatureF,DewpointF,PressureIn,WindDirection,WindDirectionDegrees,WindSpeedMPH,WindSpeedGustMPH,Humidity,HourlyPrecipIn,Conditions,Clouds,dailyrainin,SoftwareType,DateUTC
2013-03-31 00:02:00,38.0,37.0,29.84,WSW,254,2.0,4.0,98,0.00,,,0.04,,2013-03-31 05:02:00,
2013-03-31 00:12:00,38.0,37.0,29.84,WSW,254,2.0,4.0,98,0.00,,,0.04,,2013-03-31 05:12:00,
2013-03-31 00:22:00,38.0,37.0,29.84,West,262,2.0,4.0,98,0.00,,,0.04,,2013-03-31 05:22:00,
2013-03-31 00:32:00,37.0,36.0,29.84,West,271,0.0,3.0,97,0.00,,,0.04,,2013-03-31 05:32:00,
2013-03-31 00:42:00,37.0,36.0,29.84,West,271,0.0,3.0,97,0.00,,,0.04,,2013-03-31 05:42:00,
2013-03-31 00:53:00,37.0,36.0,29.84,WNW,284,1.0,3.0,98,0.00,,,0.04,,2013-03-31 05:53:00,
2013-03-31 01:02:00,37.0,36.0,29.83,WNW,292,0.0,3.0,98,0.00,,,0.04,,2013-03-31 06:02:00,
2013-03-31 01:12:00,37.0,36.0,29.83,WNW,292,0.0,3.0,98,0.00,,,0.04,,2013-03-31 06:12:00,
2013-03-31 01:22:00,35.0,34.0,29.84,WNW,290,0.0,1.0,98,0.00,,,0.04,,2013-03-31 06:22:00,
2013-03-31 01:32:00,35.0,34.0,29.84,WNW,290,0.0,0.0,98,0.00,,,0.04,,2013-03-31 06:32:00,
2013-03-31 01:42:00,35.0,34.0,29.84,WNW,290,0.0,0.0,98,0.00,,,0.04,,2013-03-31 06:42:00,
2013-03-31 01:52:00,36.0,35.0,29.84,WNW,290,2.0,3.0,98,0.00,,,0.04,,2013-03-31 06:52:00,
2013-03-31 02:02:00,36.0,35.0,29.84,NW,309,1.0,4.0,98,0.00,,,0.04,,2013-03-31 07:02:00,
2013-03-31 02:12:00,36.0,35.0,29.84,NW,309,1.0,4.0,98,0.00,,,0.04,,2013-03-31 07:12:00,
2013-03-31 02:22:00,35.0,34.0,29.83,NW,309,0.0,0.0,98,0.00,,,0.04,,2013-03-31 07:22:00,
2013-03-31 02:32:00,35.0,34.0,29.83,NW,309,1.0,2.0,98,0.00,,,0.04,,2013-03-31 07:32:00,
2013-03-31 02:42:00,35.0,34.0,29.83,NW,309,1.0,2.0,98,0.00,,,0.04,,2013-03-31 07:42:00,
2013-03-31 02:53:00,36.0,35.0,29.83,WNW,289,0.0,3.0,98,0.00,,,0.04,,2013-03-31 07:53:00,
2013-03-31 03:02:00,36.0,35.0,29.83,WNW,289,1.0,3.0,98,0.00,,,0.04,,2013-03-31 08:02:00,
2013-03-31 03:12:00,36.0,35.0,29.83,WNW,289,1.0,3.0,98,0.00,,,0.04,,2013-03-31 08:12:00,
2013-03-31 03:22:00,37.0,36.0,29.83,WNW,284,3.0,5.0,98,0.00,,,0.04,,2013-03-31 08:22:00,
2013-03-31 03:32:00,37.0,36.0,29.83,West,270,2.0,4.0,98,0.00,,,0.04,,2013-03-31 08:32:00,
2013-03-31 03:42:00,37.0,36.0,29.83,West,270,2.0,4.0,98,0.00,,,0.04,,2013-03-31 08:42:00,
2013-03-31 03:52:00,37.0,36.0,29.83,NW,311,3.0,5.0,98,0.00,,,0.04,,2013-03-31 08:52:00,
2013-03-31 04:02:00,37.0,36.0,29.83,WNW,286,4.0,7.0,98,0.00,,,0.04,,2013-03-31 09:02:00,
2013-03-31 04:12:00,37.0,36.0,29.83,WNW,286,4.0,7.0,98,0.00,,,0.04,,2013-03-31 09:12:00,
2013-03-31 04:22:00,37.0,36.0,29.82,WNW,292,4.0,6.0,98,0.00,,,0.04,,2013-03-31 09:22:00,
2013-03-31 04:33:00,37.0,36.0,29.82,WNW,295,5.0,7.0,98,0.00,,,0.04,,2013-03-31 09:33:00,
2013-03-31 04:42:00,37.0,36.0,29.82,WNW,295,5.0,7.0,98,0.00,,,0.04,,2013-03-31 09:42:00,
2013-03-31 04:53:00,37.0,36.0,29.83,WNW,290,4.0,8.0,98,0.00,,,0.04,,2013-03-31 09:53:00,
2013-03-31 05:03:00,36.0,35.0,29.82,West,279,3.0,6.0,98,0.00,,,0.04,,2013-03-31 10:03:00,
2013-03-31 05:13:00,36.0,35.0,29.82,West,279,3.0,6.0,98,0.00,,,0.04,,2013-03-31 10:13:00,
2013-03-31 05:23:00,36.0,35.0,29.81,West,277,3.0,6.0,98,0.00,,,0.04,,2013-03-31 10:23:00,
2013-03-31 05:32:00,35.0,34.0,29.82,WNW,284,3.0,6.0,98,0.00,,,0.04,,2013-03-31 10:32:00,
2013-03-31 05:42:00,35.0,34.0,29.82,WNW,284,3.0,6.0,98,0.00,,,0.04,,2013-03-31 10:42:00,
2013-03-31 05:53:00,35.0,34.0,29.83,WNW,293,4.0,9.0,98,0.00,,,0.04,,2013-03-31 10:53:00,
2013-03-31 06:02:00,35.0,34.0,29.83,NW,312,4.0,7.0,98,0.01,,,0.05,,2013-03-31 11:02:00,
2013-03-31 06:12:00,35.0,34.0,29.83,NW,312,4.0,7.0,98,0.01,,,0.05,,2013-03-31 11:12:00,
2013-03-31 06:23:00,35.0,34.0,29.83,WNW,288,6.0,9.0,98,0.01,,,0.05,,2013-03-31 11:23:00,
2013-03-31 06:32:00,34.0,34.0,29.83,WNW,289,7.0,10.0,98,0.01,,,0.05,,2013-03-31 11:32:00,
2013-03-31 06:42:00,34.0,34.0,29.83,WNW,289,7.0,10.0,98,0.01,,,0.05,,2013-03-31 11:42:00,
2013-03-31 06:52:00,33.0,32.0,29.83,WNW,291,6.0,10.0,98,0.01,,,0.05,,2013-03-31 11:52:00,
2013-03-31 07:02:00,32.0,32.0,29.83,WNW,294,6.0,10.0,98,0.00,,,0.05,,2013-03-31 12:02:00,
2013-03-31 07:12:00,32.0,32.0,29.83,WNW,294,6.0,10.0,98,0.00,,,0.05,,2013-03-31 12:12:00,
2013-03-31 07:22:00,33.0,32.0,29.83,WNW,282,3.0,8.0,98,0.00,,,0.05,,2013-03-31 12:22:00,
2013-03-31 07:33:00,33.0,32.0,29.83,West,267,5.0,10.0,98,0.00,,,0.05,,2013-03-31 12:33:00,
2013-03-31 07:42:00,33.0,32.0,29.83,West,267,5.0,10.0,98,0.00,,,0.05,,2013-03-31 12:42:00,
2013-03-31 07:53:00,33.0,32.0,29.83,West,279,3.0,6.0,98,0.00,,,0.05,,2013-03-31 12:53:00,
2013-03-31 08:02:00,33.0,32.0,29.83,WSW,257,5.0,7.0,98,0.00,,,0.05,,2013-03-31 13:02:00,
2013-03-31 08:12:00,33.0,32.0,29.83,WSW,257,5.0,7.0,98,0.00,,,0.05,,2013-03-31 13:12:00,
2013-03-31 08:22:00,33.0,32.0,29.82,West,270,3.0,6.0,98,0.00,,,0.05,,2013-03-31 13:22:00,
2013-03-31 08:32:00,33.0,32.0,29.82,West,271,5.0,7.0,98,0.00,,,0.05,,2013-03-31 13:32:00,
2013-03-31 08:42:00,33.0,32.0,29.82,West,271,5.0,7.0,98,0.00,,,0.05,,2013-03-31 13:42:00,
2013-03-31 08:53:00,34.0,34.0,29.82,WNW,288,4.0,8.0,98,0.00,,,0.05,,2013-03-31 13:53:00,
2013-03-31 09:02:00,34.0,34.0,29.82,WNW,284,5.0,8.0,98,0.00,,,0.05,,2013-03-31 14:02:00,
2013-03-31 09:12:00,34.0,34.0,29.82,WNW,284,5.0,8.0,98,0.00,,,0.05,,2013-03-31 14:12:00,
2013-03-31 09:22:00,35.0,34.0,29.82,WNW,293,8.0,14.0,98,0.00,,,0.05,,2013-03-31 14:22:00,
2013-03-31 09:32:00,34.0,34.0,29.83,WSW,244,8.0,17.0,98,0.00,,,0.05,,2013-03-31 14:32:00,
2013-03-31 09:42:00,34.0,34.0,29.83,WSW,244,8.0,17.0,98,0.00,,,0.05,,2013-03-31 14:42:00,
2013-03-31 09:52:00,35.0,34.0,29.84,WNW,301,9.0,15.0,98,0.00,,,0.05,,2013-03-31 14:52:00,
2013-03-31 10:02:00,35.0,34.0,29.83,West,277,5.0,13.0,98,0.00,,,0.05,,2013-03-31 15:02:00,
2013-03-31 10:22:00,36.0,35.0,29.83,West,279,7.0,15.0,98,0.00,,,0.05,,2013-03-31 15:22:00,
2013-03-31 10:33:00,38.0,37.0,29.83,WNW,285,8.0,15.0,98,0.00,,,0.05,,2013-03-31 15:33:00,
2013-03-31 10:43:00,38.0,37.0,29.83,WNW,285,8.0,15.0,98,0.00,,,0.05,,2013-03-31 15:43:00,
2013-03-31 10:54:00,38.0,37.0,29.83,WNW,290,5.0,12.0,98,0.00,,,0.05,,2013-03-31 15:54:00,
2013-03-31 11:03:00,40.0,39.0,29.83,WNW,283,11.0,17.0,96,0.00,,,0.05,,2013-03-31 16:03:00,
2013-03-31 11:13:00,40.0,39.0,29.83,WNW,283,11.0,17.0,96,0.00,,,0.05,,2013-03-31 16:13:00,
2013-03-31 11:23:00,40.0,38.0,29.83,West,279,7.0,15.0,94,0.00,,,0.04,,2013-03-31 16:23:00,
2013-03-31 11:33:00,42.0,40.0,29.83,West,270,8.0,14.0,91,0.00,,,0.04,,2013-03-31 16:33:00,
2013-03-31 11:42:00,42.0,40.0,29.83,West,270,8.0,14.0,91,0.00,,,0.04,,2013-03-31 16:42:00,
2013-03-31 11:53:00,43.0,40.0,29.83,WNW,297,8.0,15.0,89,0.00,,,0.04,,2013-03-31 16:53:00,
2013-03-31 12:03:00,45.0,41.0,29.82,West,281,10.0,16.0,85,0.00,,,0.04,,2013-03-31 17:03:00,
2013-03-31 12:12:00,45.0,41.0,29.82,West,281,10.0,16.0,85,0.00,,,0.04,,2013-03-31 17:12:00,
2013-03-31 12:22:00,46.0,41.0,29.83,WNW,301,13.0,21.0,81,0.00,,,0.04,,2013-03-31 17:22:00,
2013-03-31 12:32:00,48.0,41.0,29.82,West,271,13.0,20.0,77,0.00,,,0.04,,2013-03-31 17:32:00,
2013-03-31 12:42:00,48.0,41.0,29.82,West,271,13.0,20.0,77,0.00,,,0.04,,2013-03-31 17:42:00,
2013-03-31 12:52:00,48.0,38.0,29.82,NW,304,17.0,23.0,67,0.00,,,0.04,,2013-03-31 17:52:00,
2013-03-31 13:02:00,49.0,39.0,29.82,WNW,289,15.0,27.0,68,0.00,,,0.04,,2013-03-31 18:02:00,
2013-03-31 13:12:00,49.0,39.0,29.82,WNW,289,15.0,27.0,68,0.00,,,0.04,,2013-03-31 18:12:00,
2013-03-31 13:22:00,49.0,37.0,29.82,West,259,16.0,23.0,64,0.00,,,0.04,,2013-03-31 18:22:00,
2013-03-31 13:32:00,49.0,37.0,29.83,NW,308,14.0,24.0,63,0.00,,,0.04,,2013-03-31 18:32:00,
2013-03-31 13:42:00,49.0,37.0,29.83,NW,308,14.0,24.0,63,0.00,,,0.04,,2013-03-31 18:42:00,
2013-03-31 13:53:00,48.0,36.0,29.83,WNW,298,15.0,25.0,63,0.00,,,0.04,,2013-03-31 18:53:00,
2013-03-31 14:03:00,48.0,36.0,29.83,WNW,285,13.0,25.0,64,0.00,,,0.04,,2013-03-31 19:03:00,
2013-03-31 14:12:00,48.0,36.0,29.83,WNW,285,13.0,25.0,64,0.00,,,0.04,,2013-03-31 19:12:00,
2013-03-31 14:22:00,48.0,36.0,29.83,West,276,16.0,26.0,64,0.00,,,0.04,,2013-03-31 19:22:00,
2013-03-31 14:32:00,48.0,37.0,29.84,NW,319,13.0,27.0,65,0.00,,,0.04,,2013-03-31 19:32:00,
2013-03-31 14:42:00,48.0,37.0,29.84,NW,319,13.0,27.0,65,0.00,,,0.04,,2013-03-31 19:42:00,
2013-03-31 14:54:00,47.0,36.0,29.85,WNW,288,13.0,25.0,66,0.00,,,0.04,,2013-03-31 19:54:00,
2013-03-31 15:02:00,46.0,34.0,29.85,WNW,290,12.0,22.0,63,0.00,,,0.04,,2013-03-31 20:02:00,
2013-03-31 15:12:00,46.0,34.0,29.85,WNW,290,12.0,22.0,63,0.00,,,0.04,,2013-03-31 20:12:00,
2013-03-31 15:22:00,45.0,33.0,29.85,WSW,258,16.0,24.0,62,0.00,,,0.02,,2013-03-31 20:22:00,
2013-03-31 15:33:00,45.0,34.0,29.85,NNW,333,12.0,21.0,64,0.00,,,0.02,,2013-03-31 20:33:00,
2013-03-31 15:43:00,45.0,34.0,29.85,NNW,333,12.0,21.0,64,0.00,,,0.02,,2013-03-31 20:43:00,
2013-03-31 15:53:00,46.0,32.0,29.85,WNW,289,15.0,23.0,59,0.00,,,0.02,,2013-03-31 20:53:00,
2013-03-31 16:02:00,44.0,32.0,29.85,WNW,292,12.0,23.0,63,0.00,,,0.02,,2013-03-31 21:02:00,
2013-03-31 16:12:00,44.0,32.0,29.85,WNW,292,12.0,23.0,63,0.00,,,0.02,,2013-03-31 21:12:00,
2013-03-31 16:22:00,45.0,33.0,29.85,West,281,12.0,23.0,62,0.00,,,0.02,,2013-03-31 21:22:00,
2013-03-31 16:33:00,46.0,33.0,29.85,WNW,292,12.0,21.0,61,0.00,,,0.02,,2013-03-31 21:33:00,
2013-03-31 16:43:00,46.0,33.0,29.85,WNW,292,12.0,21.0,61,0.00,,,0.02,,2013-03-31 21:43:00,
2013-03-31 16:53:00,45.0,31.0,29.85,West,281,14.0,22.0,58,0.00,,,0.02,,2013-03-31 21:53:00,
2013-03-31 17:03:00,45.0,32.0,29.86,NW,320,11.0,22.0,61,0.00,,,0.02,,2013-03-31 22:03:00,
2013-03-31 17:13:00,45.0,32.0,29.86,NW,320,11.0,22.0,61,0.00,,,0.02,,2013-03-31 22:13:00,
2013-03-31 17:23:00,44.0,31.0,29.86,WNW,296,13.0,23.0,61,0.00,,,0.02,,2013-03-31 22:23:00,
2013-03-31 17:33:00,44.0,32.0,29.86,WNW,296,13.0,20.0,62,0.00,,,0.02,,2013-03-31 22:33:00,
2013-03-31 17:42:00,44.0,32.0,29.86,WNW,296,13.0,20.0,62,0.00,,,0.02,,2013-03-31 22:42:00,
2013-03-31 17:53:00,44.0,31.0,29.87,North,5,12.0,21.0,61,0.00,,,0.02,,2013-03-31 22:53:00,
2013-03-31 18:03:00,44.0,31.0,29.87,NW,325,12.0,23.0,60,0.00,,,0.02,,2013-03-31 23:03:00,
2013-03-31 18:13:00,44.0,31.0,29.87,NW,325,12.0,23.0,60,0.00,,,0.02,,2013-03-31 23:13:00,
2013-03-31 18:22:00,43.0,30.0,29.88,WNW,301,12.0,19.0,61,0.00,,,0.02,,2013-03-31 23:22:00,
2013-03-31 18:32:00,42.0,28.0,29.88,WNW,299,14.0,22.0,58,0.00,,,0.02,,2013-03-31 23:32:00,
2013-03-31 18:42:00,42.0,28.0,29.88,WNW,299,14.0,22.0,58,0.00,,,0.02,,2013-03-31 23:42:00,
2013-03-31 18:53:00,42.0,28.0,29.88,NW,306,12.0,18.0,58,0.00,,,0.02,,2013-03-31 23:53:00,
2013-03-31 19:02:00,41.0,29.0,29.89,WNW,284,11.0,21.0,61,0.00,,,0.02,,2013-04-01 00:02:00,
2013-03-31 19:12:00,41.0,29.0,29.89,WNW,284,11.0,21.0,61,0.00,,,0.02,,2013-04-01 00:12:00,
2013-03-31 19:22:00,41.0,29.0,29.90,West,277,11.0,20.0,63,0.00,,,0.02,,2013-04-01 00:22:00,
2013-03-31 19:32:00,40.0,28.0,29.91,WNW,290,10.0,17.0,62,0.00,,,0.02,,2013-04-01 00:32:00,
2013-03-31 19:42:00,40.0,28.0,29.91,WNW,290,10.0,17.0,62,0.00,,,0.02,,2013-04-01 00:42:00,
2013-03-31 19:53:00,40.0,28.0,29.91,WNW,290,10.0,17.0,62,0.00,,,0.02,,2013-04-01 00:53:00,
2013-03-31 20:02:00,39.0,27.0,29.91,WNW,284,11.0,18.0,62,0.00,,,0.02,,2013-04-01 01:02:00,
2013-03-31 20:12:00,39.0,27.0,29.91,WNW,284,11.0,18.0,62,0.00,,,0.02,,2013-04-01 01:12:00,
2013-03-31 20:23:00,38.0,27.0,29.91,WNW,284,9.0,16.0,64,0.00,,,0.02,,2013-04-01 01:23:00,
2013-03-31 20:32:00,38.0,27.0,29.92,NW,308,9.0,15.0,65,0.00,,,0.02,,2013-04-01 01:32:00,
2013-03-31 20:42:00,38.0,27.0,29.92,NW,308,9.0,15.0,65,0.00,,,0.02,,2013-04-01 01:42:00,
2013-03-31 20:53:00,37.0,26.0,29.93,WNW,296,9.0,19.0,65,0.00,,,0.02,,2013-04-01 01:53:00,
2013-03-31 21:02:00,36.0,26.0,29.93,NW,304,11.0,19.0,67,0.00,,,0.02,,2013-04-01 02:02:00,
2013-03-31 21:12:00,36.0,26.0,29.93,NW,304,11.0,19.0,67,0.00,,,0.02,,2013-04-01 02:12:00,
2013-03-31 21:22:00,36.0,26.0,29.94,West,273,9.0,17.0,68,0.00,,,0.02,,2013-04-01 02:22:00,
2013-03-31 21:32:00,36.0,26.0,29.95,WSW,254,10.0,16.0,68,0.00,,,0.02,,2013-04-01 02:32:00,
2013-03-31 21:42:00,36.0,26.0,29.95,WSW,254,10.0,16.0,68,0.00,,,0.02,,2013-04-01 02:42:00,
2013-03-31 21:53:00,35.0,26.0,29.96,WNW,302,9.0,15.0,70,0.00,,,0.02,,2013-04-01 02:53:00,
2013-03-31 22:02:00,35.0,27.0,29.96,WNW,294,9.0,15.0,71,0.00,,,0.02,,2013-04-01 03:02:00,
2013-03-31 22:12:00,35.0,27.0,29.96,WNW,294,9.0,15.0,71,0.00,,,0.02,,2013-04-01 03:12:00,
2013-03-31 22:22:00,35.0,27.0,29.96,WNW,287,10.0,17.0,71,0.00,,,0.01,,2013-04-01 03:22:00,
2013-03-31 22:34:00,34.0,25.0,29.98,NW,306,8.0,16.0,70,0.00,,,0.01,,2013-04-01 03:34:00,
2013-03-31 22:43:00,34.0,25.0,29.98,NW,306,8.0,16.0,70,0.00,,,0.01,,2013-04-01 03:43:00,
2013-03-31 22:53:00,34.0,26.0,29.98,WNW,286,9.0,14.0,71,0.00,,,0.01,,2013-04-01 03:53:00,
2013-03-31 23:02:00,34.0,26.0,29.98,North,355,9.0,16.0,72,0.00,,,0.01,,2013-04-01 04:02:00,
2013-03-31 23:13:00,34.0,26.0,29.98,North,355,9.0,16.0,72,0.00,,,0.01,,2013-04-01 04:13:00,
2013-03-31 23:23:00,34.0,26.0,29.99,WNW,300,8.0,13.0,73,0.00,,,0.01,,2013-04-01 04:23:00,
2013-03-31 23:33:00,33.0,26.0,29.99,NNW,333,6.0,13.0,74,0.00,,,0.01,,2013-04-01 04:33:00,
2013-03-31 23:43:00,33.0,26.0,29.99,NNW,333,6.0,13.0,74,0.00,,,0.01,,2013-04-01 04:43:00,
2013-03-31 23:53:00,33.0,26.0,30.00,WNW,294,8.0,15.0,74,0.00,,,0.01,,2013-04-01 04:53:00,